sensor_id;sensor_type;location;lat;lon;timestamp;P1;durP1;ratioP1;P2;durP2;ratioP2
4359;SDS011;2193;47.980;7.660;2022-12-05T00:01:18;53.33;;;22.20;;
4359;SDS011;2193;47.980;7.660;2022-12-05T00:03:44;56.67;;;21.55;;
4359;SDS011;2193;47.980;7.660;2022-12-05T00:06:09;56.30;;;22.40;;
4359;SDS011;2193;47.980;7.660;2022-12-05T00:08:34;50.77;;;23.30;;
4359;SDS011;2193;47.980;7.660;2022-12-05T00:11:00;53.50;;;21.47;;
4359;SDS011;2193;47.980;7.660;2022-12-05T00:13:25;53.30;;;22.70;;
4359;SDS011;2193;47.980;7.660;2022-12-05T00:15:50;50.07;;;21.93;;
4359;SDS011;2193;47.980;7.660;2022-12-05T00:18:15;50.10;;;22.37;;
4359;SDS011;2193;47.980;7.660;2022-12-05T00:20:44;42.00;;;20.97;;
4359;SDS011;2193;47.980;7.660;2022-12-05T00:23:09;51.35;;;23.35;;
4359;SDS011;2193;47.980;7.660;2022-12-05T00:25:35;53.27;;;22.77;;
4359;SDS011;2193;47.980;7.660;2022-12-05T00:28:00;53.73;;;24.03;;
4359;SDS011;2193;47.980;7.660;2022-12-05T00:30:25;53.10;;;23.63;;
4359;SDS011;2193;47.980;7.660;2022-12-05T00:32:50;53.33;;;21.70;;
4359;SDS011;2193;47.980;7.660;2022-12-05T00:35:16;52.93;;;22.67;;
4359;SDS011;2193;47.980;7.660;2022-12-05T00:37:41;58.70;;;23.43;;
4359;SDS011;2193;47.980;7.660;2022-12-05T00:40:06;50.57;;;24.70;;
4359;SDS011;2193;47.980;7.660;2022-12-05T00:42:31;49.67;;;22.73;;
4359;SDS011;2193;47.980;7.660;2022-12-05T00:44:57;53.43;;;23.57;;
4359;SDS011;2193;47.980;7.660;2022-12-05T00:47:22;54.60;;;23.10;;
4359;SDS011;2193;47.980;7.660;2022-12-05T00:49:47;56.07;;;23.13;;
4359;SDS011;2193;47.980;7.660;2022-12-05T00:52:12;49.53;;;21.63;;
4359;SDS011;2193;47.980;7.660;2022-12-05T00:54:37;50.87;;;22.90;;
4359;SDS011;2193;47.980;7.660;2022-12-05T00:57:03;51.00;;;22.43;;
4359;SDS011;2193;47.980;7.660;2022-12-05T00:59:28;47.40;;;22.33;;
4359;SDS011;2193;47.980;7.660;2022-12-05T01:01:53;49.37;;;21.97;;
4359;SDS011;2193;47.980;7.660;2022-12-05T01:04:21;47.67;;;21.40;;
4359;SDS011;2193;47.980;7.660;2022-12-05T01:06:47;52.50;;;22.63;;
4359;SDS011;2193;47.980;7.660;2022-12-05T01:09:13;52.13;;;23.17;;
4359;SDS011;2193;47.980;7.660;2022-12-05T01:11:39;50.38;;;21.65;;
4359;SDS011;2193;47.980;7.660;2022-12-05T01:14:05;54.03;;;21.93;;
4359;SDS011;2193;47.980;7.660;2022-12-05T01:16:32;51.23;;;22.97;;
4359;SDS011;2193;47.980;7.660;2022-12-05T01:18:58;51.35;;;23.25;;
4359;SDS011;2193;47.980;7.660;2022-12-05T01:21:24;51.40;;;22.70;;
4359;SDS011;2193;47.980;7.660;2022-12-05T01:23:49;53.27;;;22.93;;
4359;SDS011;2193;47.980;7.660;2022-12-05T01:26:15;55.93;;;23.07;;
4359;SDS011;2193;47.980;7.660;2022-12-05T01:28:41;52.10;;;21.30;;
4359;SDS011;2193;47.980;7.660;2022-12-05T01:33:47;50.55;;;22.45;;
4359;SDS011;2193;47.980;7.660;2022-12-05T01:36:12;55.20;;;22.43;;
4359;SDS011;2193;47.980;7.660;2022-12-05T01:38:38;54.07;;;23.27;;
4359;SDS011;2193;47.980;7.660;2022-12-05T01:41:04;50.13;;;22.48;;
4359;SDS011;2193;47.980;7.660;2022-12-05T01:43:30;47.42;;;22.65;;
4359;SDS011;2193;47.980;7.660;2022-12-05T01:45:55;54.57;;;22.73;;
4359;SDS011;2193;47.980;7.660;2022-12-05T01:48:22;51.50;;;23.20;;
4359;SDS011;2193;47.980;7.660;2022-12-05T01:50:48;51.42;;;23.67;;
4359;SDS011;2193;47.980;7.660;2022-12-05T01:53:15;55.97;;;23.38;;
4359;SDS011;2193;47.980;7.660;2022-12-05T01:55:41;53.25;;;23.27;;
4359;SDS011;2193;47.980;7.660;2022-12-05T01:58:06;49.67;;;21.70;;
4359;SDS011;2193;47.980;7.660;2022-12-05T02:00:33;58.08;;;23.77;;
4359;SDS011;2193;47.980;7.660;2022-12-05T02:02:59;58.90;;;23.37;;
4359;SDS011;2193;47.980;7.660;2022-12-05T02:05:27;59.72;;;24.48;;
4359;SDS011;2193;47.980;7.660;2022-12-05T02:07:53;56.13;;;22.65;;
4359;SDS011;2193;47.980;7.660;2022-12-05T02:10:18;58.07;;;24.53;;
4359;SDS011;2193;47.980;7.660;2022-12-05T02:12:44;52.93;;;22.63;;
4359;SDS011;2193;47.980;7.660;2022-12-05T02:30:57;62.40;;;25.20;;
4359;SDS011;2193;47.980;7.660;2022-12-05T02:38:40;55.95;;;22.95;;
4359;SDS011;2193;47.980;7.660;2022-12-05T02:41:15;59.45;;;23.85;;
4359;SDS011;2193;47.980;7.660;2022-12-05T02:43:46;59.92;;;23.45;;
4359;SDS011;2193;47.980;7.660;2022-12-05T02:46:16;58.65;;;23.20;;
4359;SDS011;2193;47.980;7.660;2022-12-05T02:48:43;56.80;;;24.35;;
4359;SDS011;2193;47.980;7.660;2022-12-05T02:51:09;57.53;;;23.23;;
4359;SDS011;2193;47.980;7.660;2022-12-05T02:53:37;51.60;;;23.50;;
4359;SDS011;2193;47.980;7.660;2022-12-05T02:56:03;55.97;;;23.67;;
4359;SDS011;2193;47.980;7.660;2022-12-05T02:58:46;52.20;;;22.70;;
4359;SDS011;2193;47.980;7.660;2022-12-05T03:01:12;62.35;;;24.00;;
4359;SDS011;2193;47.980;7.660;2022-12-05T03:03:38;58.67;;;24.07;;
4359;SDS011;2193;47.980;7.660;2022-12-05T03:06:15;56.03;;;22.80;;
4359;SDS011;2193;47.980;7.660;2022-12-05T03:08:46;54.65;;;22.38;;
4359;SDS011;2193;47.980;7.660;2022-12-05T03:11:13;56.05;;;23.63;;
4359;SDS011;2193;47.980;7.660;2022-12-05T03:13:52;63.28;;;24.33;;
4359;SDS011;2193;47.980;7.660;2022-12-05T03:16:19;52.53;;;21.98;;
4359;SDS011;2193;47.980;7.660;2022-12-05T03:18:57;59.97;;;23.40;;
4359;SDS011;2193;47.980;7.660;2022-12-05T03:24:00;54.85;;;23.38;;
4359;SDS011;2193;47.980;7.660;2022-12-05T03:26:31;60.88;;;23.65;;
4359;SDS011;2193;47.980;7.660;2022-12-05T03:31:39;55.15;;;23.10;;
4359;SDS011;2193;47.980;7.660;2022-12-05T03:34:06;58.25;;;23.58;;
4359;SDS011;2193;47.980;7.660;2022-12-05T03:36:35;49.60;;;22.38;;
4359;SDS011;2193;47.980;7.660;2022-12-05T03:39:07;48.58;;;22.00;;
4359;SDS011;2193;47.980;7.660;2022-12-05T03:41:37;51.55;;;21.63;;
4359;SDS011;2193;47.980;7.660;2022-12-05T03:44:06;50.58;;;23.00;;
4359;SDS011;2193;47.980;7.660;2022-12-05T03:46:43;53.33;;;24.35;;
4359;SDS011;2193;47.980;7.660;2022-12-05T03:49:14;48.90;;;22.52;;
4359;SDS011;2193;47.980;7.660;2022-12-05T03:51:44;50.08;;;20.60;;
4359;SDS011;2193;47.980;7.660;2022-12-05T03:54:19;54.00;;;20.95;;
4359;SDS011;2193;47.980;7.660;2022-12-05T03:56:50;45.10;;;19.08;;
4359;SDS011;2193;47.980;7.660;2022-12-05T04:01:41;40.97;;;17.80;;
4359;SDS011;2193;47.980;7.660;2022-12-05T04:04:09;43.10;;;18.90;;
4359;SDS011;2193;47.980;7.660;2022-12-05T04:06:37;31.92;;;16.50;;
4359;SDS011;2193;47.980;7.660;2022-12-05T04:11:29;26.70;;;14.50;;
4359;SDS011;2193;47.980;7.660;2022-12-05T04:16:49;20.10;;;13.35;;
4359;SDS011;2193;47.980;7.660;2022-12-05T04:19:49;20.77;;;12.38;;
4359;SDS011;2193;47.980;7.660;2022-12-05T04:22:34;24.08;;;14.05;;
4359;SDS011;2193;47.980;7.660;2022-12-05T04:25:00;25.17;;;13.50;;
4359;SDS011;2193;47.980;7.660;2022-12-05T04:30:14;27.25;;;14.98;;
4359;SDS011;2193;47.980;7.660;2022-12-05T04:35:19;26.13;;;14.13;;
4359;SDS011;2193;47.980;7.660;2022-12-05T04:37:46;22.48;;;13.88;;
4359;SDS011;2193;47.980;7.660;2022-12-05T04:40:20;23.88;;;14.70;;
4359;SDS011;2193;47.980;7.660;2022-12-05T04:42:47;25.63;;;14.98;;
4359;SDS011;2193;47.980;7.660;2022-12-05T04:45:13;25.98;;;14.40;;
4359;SDS011;2193;47.980;7.660;2022-12-05T04:47:40;25.70;;;15.05;;
4359;SDS011;2193;47.980;7.660;2022-12-05T04:50:07;26.67;;;13.82;;
4359;SDS011;2193;47.980;7.660;2022-12-05T04:52:35;24.75;;;14.05;;
4359;SDS011;2193;47.980;7.660;2022-12-05T04:55:02;25.05;;;13.98;;
4359;SDS011;2193;47.980;7.660;2022-12-05T04:57:32;23.85;;;13.85;;
4359;SDS011;2193;47.980;7.660;2022-12-05T04:59:58;23.70;;;14.13;;
4359;SDS011;2193;47.980;7.660;2022-12-05T05:02:25;21.77;;;13.77;;
4359;SDS011;2193;47.980;7.660;2022-12-05T05:04:52;26.83;;;14.48;;
4359;SDS011;2193;47.980;7.660;2022-12-05T05:07:19;24.90;;;14.65;;
4359;SDS011;2193;47.980;7.660;2022-12-05T05:09:44;26.60;;;15.07;;
4359;SDS011;2193;47.980;7.660;2022-12-05T05:12:09;25.00;;;15.53;;
4359;SDS011;2193;47.980;7.660;2022-12-05T05:14:35;25.60;;;15.23;;
4359;SDS011;2193;47.980;7.660;2022-12-05T05:17:00;27.77;;;14.37;;
4359;SDS011;2193;47.980;7.660;2022-12-05T05:19:26;25.03;;;14.80;;
4359;SDS011;2193;47.980;7.660;2022-12-05T05:21:51;26.10;;;13.73;;
4359;SDS011;2193;47.980;7.660;2022-12-05T05:24:17;23.70;;;13.33;;
4359;SDS011;2193;47.980;7.660;2022-12-05T05:26:43;25.80;;;15.27;;
4359;SDS011;2193;47.980;7.660;2022-12-05T05:29:09;24.15;;;14.52;;
4359;SDS011;2193;47.980;7.660;2022-12-05T05:31:35;23.50;;;13.27;;
4359;SDS011;2193;47.980;7.660;2022-12-05T05:34:00;21.40;;;13.10;;
4359;SDS011;2193;47.980;7.660;2022-12-05T05:36:26;19.90;;;11.70;;
4359;SDS011;2193;47.980;7.660;2022-12-05T05:38:52;23.87;;;13.50;;
4359;SDS011;2193;47.980;7.660;2022-12-05T05:41:18;24.63;;;13.50;;
4359;SDS011;2193;47.980;7.660;2022-12-05T05:43:44;22.77;;;11.90;;
4359;SDS011;2193;47.980;7.660;2022-12-05T05:46:10;22.20;;;12.80;;
4359;SDS011;2193;47.980;7.660;2022-12-05T05:48:35;24.10;;;12.83;;
4359;SDS011;2193;47.980;7.660;2022-12-05T05:51:01;23.30;;;12.53;;
4359;SDS011;2193;47.980;7.660;2022-12-05T05:53:27;23.95;;;13.15;;
4359;SDS011;2193;47.980;7.660;2022-12-05T05:55:52;21.27;;;12.93;;
4359;SDS011;2193;47.980;7.660;2022-12-05T05:58:18;20.40;;;11.23;;
4359;SDS011;2193;47.980;7.660;2022-12-05T06:00:43;20.43;;;11.50;;
4359;SDS011;2193;47.980;7.660;2022-12-05T06:03:08;17.33;;;10.53;;
4359;SDS011;2193;47.980;7.660;2022-12-05T06:05:33;22.10;;;11.07;;
4359;SDS011;2193;47.980;7.660;2022-12-05T06:07:58;17.20;;;11.27;;
4359;SDS011;2193;47.980;7.660;2022-12-05T06:10:24;22.53;;;11.90;;
4359;SDS011;2193;47.980;7.660;2022-12-05T06:12:49;19.37;;;10.60;;
4359;SDS011;2193;47.980;7.660;2022-12-05T06:15:14;18.67;;;10.23;;
4359;SDS011;2193;47.980;7.660;2022-12-05T06:17:39;15.10;;;9.87;;
4359;SDS011;2193;47.980;7.660;2022-12-05T06:20:05;17.33;;;9.73;;
4359;SDS011;2193;47.980;7.660;2022-12-05T06:22:31;17.58;;;9.38;;
4359;SDS011;2193;47.980;7.660;2022-12-05T06:24:56;18.90;;;10.33;;
4359;SDS011;2193;47.980;7.660;2022-12-05T06:27:21;15.93;;;9.47;;
4359;SDS011;2193;47.980;7.660;2022-12-05T06:29:47;14.80;;;9.57;;
4359;SDS011;2193;47.980;7.660;2022-12-05T06:32:12;13.40;;;8.33;;
4359;SDS011;2193;47.980;7.660;2022-12-05T06:34:37;15.37;;;8.90;;
4359;SDS011;2193;47.980;7.660;2022-12-05T06:37:02;16.43;;;9.50;;
4359;SDS011;2193;47.980;7.660;2022-12-05T06:39:28;18.00;;;9.30;;
4359;SDS011;2193;47.980;7.660;2022-12-05T06:41:53;16.40;;;10.07;;
4359;SDS011;2193;47.980;7.660;2022-12-05T06:44:19;14.40;;;8.87;;
4359;SDS011;2193;47.980;7.660;2022-12-05T06:46:45;15.65;;;8.13;;
4359;SDS011;2193;47.980;7.660;2022-12-05T06:49:11;14.77;;;8.50;;
4359;SDS011;2193;47.980;7.660;2022-12-05T06:51:36;12.90;;;7.57;;
4359;SDS011;2193;47.980;7.660;2022-12-05T06:54:01;11.80;;;7.33;;
4359;SDS011;2193;47.980;7.660;2022-12-05T06:56:26;13.30;;;8.17;;
4359;SDS011;2193;47.980;7.660;2022-12-05T06:58:52;12.37;;;8.07;;
4359;SDS011;2193;47.980;7.660;2022-12-05T07:01:19;12.17;;;7.83;;
4359;SDS011;2193;47.980;7.660;2022-12-05T07:04:03;12.80;;;7.75;;
4359;SDS011;2193;47.980;7.660;2022-12-05T07:06:29;12.95;;;7.88;;
4359;SDS011;2193;47.980;7.660;2022-12-05T07:08:54;11.87;;;7.97;;
4359;SDS011;2193;47.980;7.660;2022-12-05T07:11:20;15.23;;;8.90;;
4359;SDS011;2193;47.980;7.660;2022-12-05T07:13:45;14.70;;;8.50;;
4359;SDS011;2193;47.980;7.660;2022-12-05T07:16:10;15.87;;;8.47;;
4359;SDS011;2193;47.980;7.660;2022-12-05T07:18:35;13.53;;;8.60;;
4359;SDS011;2193;47.980;7.660;2022-12-05T07:21:02;12.53;;;7.50;;
4359;SDS011;2193;47.980;7.660;2022-12-05T07:23:28;12.18;;;7.97;;
4359;SDS011;2193;47.980;7.660;2022-12-05T07:25:53;16.87;;;9.80;;
4359;SDS011;2193;47.980;7.660;2022-12-05T07:28:18;12.80;;;8.10;;
4359;SDS011;2193;47.980;7.660;2022-12-05T07:30:44;13.10;;;8.30;;
4359;SDS011;2193;47.980;7.660;2022-12-05T07:33:09;13.07;;;8.47;;
4359;SDS011;2193;47.980;7.660;2022-12-05T07:35:34;13.00;;;8.13;;
4359;SDS011;2193;47.980;7.660;2022-12-05T07:37:59;13.13;;;8.40;;
4359;SDS011;2193;47.980;7.660;2022-12-05T07:40:24;10.83;;;7.73;;
4359;SDS011;2193;47.980;7.660;2022-12-05T07:42:50;11.23;;;6.83;;
4359;SDS011;2193;47.980;7.660;2022-12-05T07:45:17;12.05;;;8.02;;
4359;SDS011;2193;47.980;7.660;2022-12-05T07:47:42;10.27;;;7.10;;
4359;SDS011;2193;47.980;7.660;2022-12-05T07:50:07;16.50;;;7.20;;
4359;SDS011;2193;47.980;7.660;2022-12-05T07:52:33;14.03;;;7.63;;
4359;SDS011;2193;47.980;7.660;2022-12-05T07:54:58;11.80;;;7.40;;
4359;SDS011;2193;47.980;7.660;2022-12-05T07:57:23;11.80;;;6.90;;
4359;SDS011;2193;47.980;7.660;2022-12-05T07:59:49;10.77;;;6.90;;
4359;SDS011;2193;47.980;7.660;2022-12-05T08:02:14;9.87;;;6.47;;
4359;SDS011;2193;47.980;7.660;2022-12-05T08:04:39;9.03;;;6.23;;
4359;SDS011;2193;47.980;7.660;2022-12-05T08:07:04;9.87;;;6.70;;
4359;SDS011;2193;47.980;7.660;2022-12-05T08:09:30;11.33;;;6.80;;
4359;SDS011;2193;47.980;7.660;2022-12-05T08:11:55;9.30;;;6.53;;
4359;SDS011;2193;47.980;7.660;2022-12-05T08:14:20;11.80;;;6.57;;
4359;SDS011;2193;47.980;7.660;2022-12-05T08:16:45;11.37;;;6.90;;
4359;SDS011;2193;47.980;7.660;2022-12-05T08:19:11;8.20;;;5.30;;
4359;SDS011;2193;47.980;7.660;2022-12-05T08:21:37;10.20;;;6.80;;
4359;SDS011;2193;47.980;7.660;2022-12-05T08:24:03;9.93;;;6.23;;
4359;SDS011;2193;47.980;7.660;2022-12-05T08:26:29;9.20;;;6.20;;
4359;SDS011;2193;47.980;7.660;2022-12-05T08:28:58;10.00;;;6.32;;
4359;SDS011;2193;47.980;7.660;2022-12-05T08:31:24;9.00;;;6.25;;
4359;SDS011;2193;47.980;7.660;2022-12-05T08:33:50;10.13;;;6.63;;
4359;SDS011;2193;47.980;7.660;2022-12-05T08:36:16;9.30;;;6.37;;
4359;SDS011;2193;47.980;7.660;2022-12-05T08:38:42;7.63;;;5.47;;
4359;SDS011;2193;47.980;7.660;2022-12-05T08:41:08;12.77;;;7.73;;
4359;SDS011;2193;47.980;7.660;2022-12-05T08:43:34;10.60;;;6.43;;
4359;SDS011;2193;47.980;7.660;2022-12-05T08:45:59;10.40;;;6.37;;
4359;SDS011;2193;47.980;7.660;2022-12-05T08:48:25;8.27;;;5.67;;
4359;SDS011;2193;47.980;7.660;2022-12-05T08:50:50;10.38;;;6.40;;
4359;SDS011;2193;47.980;7.660;2022-12-05T08:53:16;8.83;;;6.60;;
4359;SDS011;2193;47.980;7.660;2022-12-05T08:55:41;9.63;;;6.30;;
4359;SDS011;2193;47.980;7.660;2022-12-05T08:58:06;9.13;;;5.83;;
4359;SDS011;2193;47.980;7.660;2022-12-05T09:00:32;13.43;;;6.70;;
4359;SDS011;2193;47.980;7.660;2022-12-05T09:02:57;11.07;;;6.90;;
4359;SDS011;2193;47.980;7.660;2022-12-05T09:05:23;12.97;;;7.30;;
4359;SDS011;2193;47.980;7.660;2022-12-05T09:07:48;9.60;;;6.80;;
4359;SDS011;2193;47.980;7.660;2022-12-05T09:10:13;10.33;;;6.70;;
4359;SDS011;2193;47.980;7.660;2022-12-05T09:12:39;9.97;;;6.90;;
4359;SDS011;2193;47.980;7.660;2022-12-05T09:15:07;13.10;;;7.23;;
4359;SDS011;2193;47.980;7.660;2022-12-05T09:17:33;9.90;;;6.20;;
4359;SDS011;2193;47.980;7.660;2022-12-05T09:19:58;9.87;;;6.00;;
4359;SDS011;2193;47.980;7.660;2022-12-05T09:22:25;8.38;;;5.47;;
4359;SDS011;2193;47.980;7.660;2022-12-05T09:24:50;7.63;;;5.70;;
4359;SDS011;2193;47.980;7.660;2022-12-05T09:27:15;7.10;;;5.37;;
4359;SDS011;2193;47.980;7.660;2022-12-05T09:29:40;6.77;;;4.67;;
4359;SDS011;2193;47.980;7.660;2022-12-05T09:32:07;11.05;;;5.55;;
4359;SDS011;2193;47.980;7.660;2022-12-05T09:34:32;10.13;;;6.60;;
4359;SDS011;2193;47.980;7.660;2022-12-05T09:36:57;9.27;;;5.80;;
4359;SDS011;2193;47.980;7.660;2022-12-05T09:39:24;10.90;;;6.68;;
4359;SDS011;2193;47.980;7.660;2022-12-05T09:47:12;10.60;;;5.60;;
4359;SDS011;2193;47.980;7.660;2022-12-05T09:49:39;9.65;;;6.10;;
4359;SDS011;2193;47.980;7.660;2022-12-05T09:52:08;9.02;;;6.18;;
4359;SDS011;2193;47.980;7.660;2022-12-05T09:54:34;10.30;;;5.60;;
4359;SDS011;2193;47.980;7.660;2022-12-05T09:56:59;14.93;;;5.77;;
4359;SDS011;2193;47.980;7.660;2022-12-05T09:59:25;10.10;;;6.50;;
4359;SDS011;2193;47.980;7.660;2022-12-05T10:06:59;9.98;;;6.53;;
4359;SDS011;2193;47.980;7.660;2022-12-05T10:15:03;11.77;;;7.00;;
4359;SDS011;2193;47.980;7.660;2022-12-05T10:17:34;10.10;;;7.32;;
4359;SDS011;2193;47.980;7.660;2022-12-05T10:20:01;14.38;;;8.77;;
4359;SDS011;2193;47.980;7.660;2022-12-05T10:22:28;15.05;;;8.57;;
4359;SDS011;2193;47.980;7.660;2022-12-05T10:24:55;13.90;;;7.32;;
4359;SDS011;2193;47.980;7.660;2022-12-05T10:27:30;15.25;;;8.68;;
4359;SDS011;2193;47.980;7.660;2022-12-05T10:29:57;12.60;;;7.90;;
4359;SDS011;2193;47.980;7.660;2022-12-05T10:32:30;13.32;;;7.90;;
4359;SDS011;2193;47.980;7.660;2022-12-05T10:35:05;12.65;;;8.15;;
4359;SDS011;2193;47.980;7.660;2022-12-05T10:37:31;12.70;;;7.40;;
4359;SDS011;2193;47.980;7.660;2022-12-05T10:39:56;13.93;;;8.50;;
4359;SDS011;2193;47.980;7.660;2022-12-05T10:42:24;11.03;;;8.20;;
4359;SDS011;2193;47.980;7.660;2022-12-05T10:44:58;13.95;;;8.60;;
4359;SDS011;2193;47.980;7.660;2022-12-05T10:47:25;12.70;;;7.60;;
4359;SDS011;2193;47.980;7.660;2022-12-05T10:49:51;12.93;;;7.37;;
4359;SDS011;2193;47.980;7.660;2022-12-05T10:52:16;8.67;;;6.50;;
4359;SDS011;2193;47.980;7.660;2022-12-05T10:54:43;10.57;;;6.90;;
4359;SDS011;2193;47.980;7.660;2022-12-05T10:57:20;10.77;;;7.20;;
4359;SDS011;2193;47.980;7.660;2022-12-05T10:59:46;9.77;;;7.13;;
4359;SDS011;2193;47.980;7.660;2022-12-05T11:02:17;10.17;;;6.83;;
4359;SDS011;2193;47.980;7.660;2022-12-05T11:04:44;7.53;;;6.10;;
4359;SDS011;2193;47.980;7.660;2022-12-05T11:07:22;7.93;;;5.80;;
4359;SDS011;2193;47.980;7.660;2022-12-05T11:09:48;10.73;;;6.65;;
4359;SDS011;2193;47.980;7.660;2022-12-05T11:12:15;9.13;;;5.87;;
4359;SDS011;2193;47.980;7.660;2022-12-05T11:14:52;9.80;;;6.10;;
4359;SDS011;2193;47.980;7.660;2022-12-05T11:17:21;8.73;;;5.28;;
4359;SDS011;2193;47.980;7.660;2022-12-05T11:19:47;7.40;;;5.28;;
4359;SDS011;2193;47.980;7.660;2022-12-05T11:22:15;9.33;;;5.00;;
4359;SDS011;2193;47.980;7.660;2022-12-05T11:24:40;7.87;;;5.33;;
4359;SDS011;2193;47.980;7.660;2022-12-05T11:29:40;6.72;;;4.68;;
4359;SDS011;2193;47.980;7.660;2022-12-05T11:32:15;7.93;;;5.17;;
4359;SDS011;2193;47.980;7.660;2022-12-05T11:34:43;7.88;;;5.38;;
4359;SDS011;2193;47.980;7.660;2022-12-05T11:37:12;10.95;;;5.60;;
4359;SDS011;2193;47.980;7.660;2022-12-05T11:39:38;7.55;;;5.30;;
4359;SDS011;2193;47.980;7.660;2022-12-05T11:44:45;6.68;;;5.50;;
4359;SDS011;2193;47.980;7.660;2022-12-05T11:47:21;9.40;;;5.97;;
4359;SDS011;2193;47.980;7.660;2022-12-05T11:50:00;7.90;;;5.00;;
4359;SDS011;2193;47.980;7.660;2022-12-05T11:52:31;7.95;;;5.35;;
4359;SDS011;2193;47.980;7.660;2022-12-05T12:23:14;6.33;;;4.87;;
4359;SDS011;2193;47.980;7.660;2022-12-05T12:28:34;7.45;;;4.85;;
4359;SDS011;2193;47.980;7.660;2022-12-05T12:38:50;4.60;;;4.10;;
4359;SDS011;2193;47.980;7.660;2022-12-05T12:51:59;5.63;;;4.53;;
4359;SDS011;2193;47.980;7.660;2022-12-05T12:57:05;4.88;;;4.10;;
4359;SDS011;2193;47.980;7.660;2022-12-05T12:59:42;10.40;;;4.40;;
4359;SDS011;2193;47.980;7.660;2022-12-05T13:02:12;5.60;;;3.87;;
4359;SDS011;2193;47.980;7.660;2022-12-05T13:04:48;3.73;;;2.67;;
4359;SDS011;2193;47.980;7.660;2022-12-05T13:07:48;4.20;;;2.90;;
4359;SDS011;2193;47.980;7.660;2022-12-05T13:12:37;3.30;;;3.00;;
4359;SDS011;2193;47.980;7.660;2022-12-05T13:15:04;2.87;;;2.60;;
4359;SDS011;2193;47.980;7.660;2022-12-05T13:17:31;3.30;;;2.80;;
4359;SDS011;2193;47.980;7.660;2022-12-05T13:19:57;3.10;;;2.80;;
4359;SDS011;2193;47.980;7.660;2022-12-05T13:22:23;4.07;;;2.83;;
4359;SDS011;2193;47.980;7.660;2022-12-05T13:24:50;2.30;;;2.10;;
4359;SDS011;2193;47.980;7.660;2022-12-05T13:27:16;2.93;;;2.63;;
4359;SDS011;2193;47.980;7.660;2022-12-05T13:29:47;3.05;;;2.65;;
4359;SDS011;2193;47.980;7.660;2022-12-05T13:32:29;3.10;;;2.80;;
4359;SDS011;2193;47.980;7.660;2022-12-05T13:35:11;3.80;;;2.40;;
4359;SDS011;2193;47.980;7.660;2022-12-05T13:37:45;3.00;;;2.47;;
4359;SDS011;2193;47.980;7.660;2022-12-05T13:40:30;2.60;;;2.40;;
4359;SDS011;2193;47.980;7.660;2022-12-05T13:43:18;4.57;;;3.00;;
4359;SDS011;2193;47.980;7.660;2022-12-05T13:45:57;4.13;;;2.53;;
4359;SDS011;2193;47.980;7.660;2022-12-05T13:48:24;2.90;;;2.60;;
4359;SDS011;2193;47.980;7.660;2022-12-05T13:50:55;3.17;;;2.83;;
4359;SDS011;2193;47.980;7.660;2022-12-05T13:53:30;3.03;;;2.63;;
4359;SDS011;2193;47.980;7.660;2022-12-05T13:56:03;2.57;;;2.37;;
4359;SDS011;2193;47.980;7.660;2022-12-05T14:06:13;5.47;;;3.23;;
4359;SDS011;2193;47.980;7.660;2022-12-05T14:08:57;4.83;;;2.87;;
4359;SDS011;2193;47.980;7.660;2022-12-05T14:11:23;3.80;;;2.60;;
4359;SDS011;2193;47.980;7.660;2022-12-05T14:13:48;3.30;;;2.70;;
4359;SDS011;2193;47.980;7.660;2022-12-05T14:21:17;3.60;;;1.83;;
4359;SDS011;2193;47.980;7.660;2022-12-05T14:36:35;2.20;;;2.00;;
4359;SDS011;2193;47.980;7.660;2022-12-05T14:39:18;1.85;;;1.40;;
4359;SDS011;2193;47.980;7.660;2022-12-05T14:41:44;2.33;;;1.50;;
4359;SDS011;2193;47.980;7.660;2022-12-05T14:44:15;2.63;;;2.10;;
4359;SDS011;2193;47.980;7.660;2022-12-05T14:46:42;2.10;;;1.65;;
4359;SDS011;2193;47.980;7.660;2022-12-05T14:51:56;2.55;;;1.90;;
4359;SDS011;2193;47.980;7.660;2022-12-05T14:54:22;2.10;;;1.90;;
4359;SDS011;2193;47.980;7.660;2022-12-05T14:56:49;2.33;;;2.13;;
4359;SDS011;2193;47.980;7.660;2022-12-05T14:59:28;2.15;;;1.98;;
4359;SDS011;2193;47.980;7.660;2022-12-05T15:01:56;3.03;;;2.33;;
4359;SDS011;2193;47.980;7.660;2022-12-05T15:04:37;2.05;;;1.95;;
4359;SDS011;2193;47.980;7.660;2022-12-05T15:07:14;2.90;;;2.60;;
4359;SDS011;2193;47.980;7.660;2022-12-05T15:12:19;2.58;;;2.38;;
4359;SDS011;2193;47.980;7.660;2022-12-05T15:17:44;11.93;;;2.28;;
4359;SDS011;2193;47.980;7.660;2022-12-05T15:20:13;3.00;;;2.40;;
4359;SDS011;2193;47.980;7.660;2022-12-05T15:22:40;3.45;;;2.50;;
4359;SDS011;2193;47.980;7.660;2022-12-05T15:27:51;3.97;;;2.58;;
4359;SDS011;2193;47.980;7.660;2022-12-05T15:30:16;4.85;;;2.58;;
4359;SDS011;2193;47.980;7.660;2022-12-05T15:32:42;2.73;;;2.53;;
4359;SDS011;2193;47.980;7.660;2022-12-05T15:35:08;3.87;;;2.90;;
4359;SDS011;2193;47.980;7.660;2022-12-05T15:37:44;7.00;;;3.10;;
4359;SDS011;2193;47.980;7.660;2022-12-05T15:40:11;4.05;;;2.67;;
4359;SDS011;2193;47.980;7.660;2022-12-05T15:42:45;2.70;;;2.50;;
4359;SDS011;2193;47.980;7.660;2022-12-05T15:47:35;7.10;;;5.50;;
4359;SDS011;2193;47.980;7.660;2022-12-05T15:50:00;7.40;;;3.63;;
4359;SDS011;2193;47.980;7.660;2022-12-05T15:55:02;3.17;;;2.80;;
4359;SDS011;2193;47.980;7.660;2022-12-05T15:57:33;3.53;;;3.22;;
4359;SDS011;2193;47.980;7.660;2022-12-05T16:00:03;3.95;;;3.47;;
4359;SDS011;2193;47.980;7.660;2022-12-05T16:05:01;7.65;;;3.85;;
4359;SDS011;2193;47.980;7.660;2022-12-05T16:07:27;30.00;;;15.10;;
4359;SDS011;2193;47.980;7.660;2022-12-05T16:09:57;7.40;;;5.60;;
4359;SDS011;2193;47.980;7.660;2022-12-05T16:12:24;6.75;;;4.60;;
4359;SDS011;2193;47.980;7.660;2022-12-05T16:14:50;13.95;;;7.10;;
4359;SDS011;2193;47.980;7.660;2022-12-05T16:17:17;8.65;;;5.25;;
4359;SDS011;2193;47.980;7.660;2022-12-05T16:19:43;17.05;;;9.25;;
4359;SDS011;2193;47.980;7.660;2022-12-05T16:24:47;67.78;;;24.67;;
4359;SDS011;2193;47.980;7.660;2022-12-05T16:27:22;43.72;;;19.13;;
4359;SDS011;2193;47.980;7.660;2022-12-05T16:30:04;215.52;;;74.43;;
4359;SDS011;2193;47.980;7.660;2022-12-05T16:32:30;210.63;;;75.32;;
4359;SDS011;2193;47.980;7.660;2022-12-05T16:34:58;25.77;;;15.77;;
4359;SDS011;2193;47.980;7.660;2022-12-05T16:37:27;55.30;;;30.50;;
4359;SDS011;2193;47.980;7.660;2022-12-05T16:39:53;21.48;;;12.98;;
4359;SDS011;2193;47.980;7.660;2022-12-05T16:42:25;27.33;;;20.33;;
4359;SDS011;2193;47.980;7.660;2022-12-05T16:47:39;12.85;;;10.77;;
4359;SDS011;2193;47.980;7.660;2022-12-05T16:55:26;12.60;;;6.93;;
4359;SDS011;2193;47.980;7.660;2022-12-05T16:57:52;11.03;;;6.60;;
4359;SDS011;2193;47.980;7.660;2022-12-05T17:00:17;17.00;;;8.07;;
4359;SDS011;2193;47.980;7.660;2022-12-05T17:02:42;11.13;;;8.17;;
4359;SDS011;2193;47.980;7.660;2022-12-05T17:05:12;22.15;;;14.15;;
4359;SDS011;2193;47.980;7.660;2022-12-05T17:07:38;10.98;;;8.88;;
4359;SDS011;2193;47.980;7.660;2022-12-05T17:10:03;7.77;;;6.20;;
4359;SDS011;2193;47.980;7.660;2022-12-05T17:12:28;9.90;;;7.20;;
4359;SDS011;2193;47.980;7.660;2022-12-05T17:14:54;10.27;;;7.13;;
4359;SDS011;2193;47.980;7.660;2022-12-05T17:17:19;13.40;;;9.10;;
4359;SDS011;2193;47.980;7.660;2022-12-05T17:19:45;12.07;;;7.67;;
4359;SDS011;2193;47.980;7.660;2022-12-05T17:22:10;14.00;;;10.87;;
4359;SDS011;2193;47.980;7.660;2022-12-05T17:24:36;14.40;;;9.40;;
4359;SDS011;2193;47.980;7.660;2022-12-05T17:27:01;12.50;;;8.33;;
4359;SDS011;2193;47.980;7.660;2022-12-05T17:29:26;10.40;;;7.70;;
4359;SDS011;2193;47.980;7.660;2022-12-05T17:31:51;11.03;;;7.83;;
4359;SDS011;2193;47.980;7.660;2022-12-05T17:34:17;17.03;;;11.40;;
4359;SDS011;2193;47.980;7.660;2022-12-05T17:36:42;17.10;;;11.30;;
4359;SDS011;2193;47.980;7.660;2022-12-05T17:39:08;18.83;;;11.13;;
4359;SDS011;2193;47.980;7.660;2022-12-05T17:41:33;14.60;;;10.03;;
4359;SDS011;2193;47.980;7.660;2022-12-05T17:43:59;17.07;;;11.90;;
4359;SDS011;2193;47.980;7.660;2022-12-05T17:46:24;12.97;;;9.30;;
4359;SDS011;2193;47.980;7.660;2022-12-05T17:48:49;13.30;;;9.93;;
4359;SDS011;2193;47.980;7.660;2022-12-05T17:51:14;23.83;;;13.63;;
4359;SDS011;2193;47.980;7.660;2022-12-05T17:53:40;25.47;;;14.03;;
4359;SDS011;2193;47.980;7.660;2022-12-05T17:56:06;15.73;;;9.93;;